Time;durP1;ratioP1;P1;durP2;ratioP2;P2;SDS_P1;SDS_P2;PMS_P1;PMS_P2;Temp;Humidity;BMP_temperature;BMP_pressure;BME280_temperature;BME280_humidity;BME280_pressure;Samples;Min_cycle;Max_cycle;Signal;HPM_P1;HPM_P2
2022/12/15 00:38:43;;;;;;;7.73;5.53;;;;;;;;;;5048379;28;20767;-59
2022/12/15 00:41:10;;;;;;;9.70;6.37;;;;;;;;;;5046680;28;20514;-59
2022/12/15 00:43:36;;;;;;;9.10;5.83;;;;;;;;;;5045340;28;20523;-59
2022/12/15 00:48:48;;;;;;;11.10;6.87;;;;;;;;;;5047331;28;20458;-58
2022/12/15 00:51:15;;;;;;;8.47;5.80;;;;;;;;;;5045833;28;20850;-59
2022/12/15 01:21:11;;;;;;;11.70;6.90;;;;;;;;;;5046289;28;20384;-58
2022/12/15 01:23:38;;;;;;;7.43;4.47;;;;;;;;;;5046554;28;20436;-59
2022/12/15 01:26:06;;;;;;;9.63;6.10;;;;;;;;;;5043746;28;20437;-58
2022/12/15 01:28:32;;;;;;;8.60;5.83;;;;;;;;;;5043314;28;20949;-58
2022/12/15 01:30:58;;;;;;;11.20;7.20;;;;;;;;;;5044536;28;20810;-59
2022/12/15 01:33:24;;;;;;;6.87;5.27;;;;;;;;;;5044624;28;20435;-59
2022/12/15 01:36:00;;;;;;;8.37;6.57;;;;;;;;;;5018475;28;20579;-58
2022/12/15 01:38:26;;;;;;;5.80;5.07;;;;;;;;;;5018631;28;20435;-58
2022/12/15 01:40:54;;;;;;;10.43;6.13;;;;;;;;;;5019058;28;20427;-58
2022/12/15 01:43:30;;;;;;;7.70;5.70;;;;;;;;;;5001477;28;20429;-58
2022/12/15 01:46:02;;;;;;;8.70;5.70;;;;;;;;;;5017875;28;20435;-58
2022/12/15 01:48:54;;;;;;;7.50;5.67;;;;;;;;;;5040064;28;20968;-58
2022/12/15 01:51:31;;;;;;;7.77;5.57;;;;;;;;;;5038346;28;20445;-58
2022/12/15 01:54:01;;;;;;;7.33;5.93;;;;;;;;;;5046121;28;20437;-58
2022/12/15 01:56:29;;;;;;;8.07;5.77;;;;;;;;;;5043241;28;21237;-58
2022/12/15 01:58:57;;;;;;;7.47;5.70;;;;;;;;;;5045540;28;20431;-58
2022/12/15 02:01:23;;;;;;;11.63;6.23;;;;;;;;;;5038650;28;20432;-58
2022/12/15 02:03:49;;;;;;;11.17;6.83;;;;;;;;;;5039894;28;20479;-59
2022/12/15 02:06:17;;;;;;;8.67;6.37;;;;;;;;;;5018675;28;20497;-58
2022/12/15 02:08:45;;;;;;;8.13;5.53;;;;;;;;;;5039796;28;20431;-58
2022/12/15 02:11:11;;;;;;;9.87;7.10;;;;;;;;;;5043732;28;20850;-58
2022/12/15 02:13:43;;;;;;;7.43;6.27;;;;;;;;;;5040054;28;20427;-59
2022/12/15 02:16:19;;;;;;;9.20;6.33;;;;;;;;;;5043606;28;20478;-59
2022/12/15 02:18:50;;;;;;;7.97;5.83;;;;;;;;;;5025434;28;20980;-58
2022/12/15 02:21:18;;;;;;;7.07;5.00;;;;;;;;;;5043627;28;21124;-59
2022/12/15 02:23:47;;;;;;;8.77;5.37;;;;;;;;;;5041486;28;20767;-59
2022/12/15 02:26:32;;;;;;;7.57;6.40;;;;;;;;;;5029665;28;20420;-59
2022/12/15 02:29:17;;;;;;;7.47;5.07;;;;;;;;;;5036734;28;20848;-59
2022/12/15 02:31:50;;;;;;;10.20;5.80;;;;;;;;;;5036912;28;20561;-58
2022/12/15 02:34:16;;;;;;;10.67;7.10;;;;;;;;;;5044052;28;21194;-58
2022/12/15 02:36:43;;;;;;;8.27;5.93;;;;;;;;;;5043799;28;20937;-59
2022/12/15 02:39:12;;;;;;;9.13;6.50;;;;;;;;;;5043492;28;20735;-59
2022/12/15 02:41:40;;;;;;;8.20;6.17;;;;;;;;;;5044537;28;20963;-59
2022/12/15 02:44:11;;;;;;;8.50;6.10;;;;;;;;;;5028269;28;20442;-59
2022/12/15 02:46:46;;;;;;;9.27;6.30;;;;;;;;;;5043115;28;20503;-59
2022/12/15 02:49:21;;;;;;;8.90;6.17;;;;;;;;;;5044338;28;20439;-58
2022/12/15 02:51:53;;;;;;;9.00;6.53;;;;;;;;;;5040059;28;20541;-60
2022/12/15 02:54:38;;;;;;;8.00;5.87;;;;;;;;;;5035160;28;20465;-59
2022/12/15 02:57:26;;;;;;;11.30;6.83;;;;;;;;;;5044842;28;20821;-59
2022/12/15 03:00:04;;;;;;;6.10;5.23;;;;;;;;;;5044475;28;20473;-59
2022/12/15 03:02:31;;;;;;;8.87;5.93;;;;;;;;;;5026213;28;20490;-59
2022/12/15 03:04:57;;;;;;;11.13;6.30;;;;;;;;;;5057409;28;20988;-59
2022/12/15 03:07:27;;;;;;;8.63;6.37;;;;;;;;;;5064375;28;20467;-58
2022/12/15 03:09:57;;;;;;;7.13;5.90;;;;;;;;;;5064279;28;20973;-59
2022/12/15 03:12:23;;;;;;;11.80;6.70;;;;;;;;;;5041448;28;20423;-58
2022/12/15 03:14:49;;;;;;;9.40;6.47;;;;;;;;;;5044201;28;20474;-57
2022/12/15 03:17:15;;;;;;;10.73;5.77;;;;;;;;;;5043022;28;20830;-57
2022/12/15 03:19:41;;;;;;;6.17;5.57;;;;;;;;;;5048148;28;20905;-57
2022/12/15 03:22:08;;;;;;;8.77;5.80;;;;;;;;;;5044952;28;20812;-58
2022/12/15 03:24:34;;;;;;;8.93;5.63;;;;;;;;;;5049188;28;20934;-58
2022/12/15 03:27:00;;;;;;;7.90;5.60;;;;;;;;;;5045113;28;20984;-57
2022/12/15 03:29:26;;;;;;;8.33;5.20;;;;;;;;;;5047977;28;20429;-58
2022/12/15 03:31:52;;;;;;;7.33;5.50;;;;;;;;;;5045753;28;20538;-57
2022/12/15 03:34:18;;;;;;;7.97;5.70;;;;;;;;;;5045028;28;20431;-57
2022/12/15 03:36:44;;;;;;;8.20;5.80;;;;;;;;;;5047013;28;20446;-57
2022/12/15 03:39:10;;;;;;;9.17;6.87;;;;;;;;;;5046889;28;20891;-57
2022/12/15 03:41:36;;;;;;;13.83;6.23;;;;;;;;;;5043001;28;20443;-57
2022/12/15 03:44:02;;;;;;;8.77;5.93;;;;;;;;;;5045897;28;20524;-57
2022/12/15 03:46:29;;;;;;;7.50;5.80;;;;;;;;;;5046563;28;20434;-57
2022/12/15 03:48:55;;;;;;;7.50;5.50;;;;;;;;;;5045895;28;21166;-58
2022/12/15 03:51:21;;;;;;;9.00;5.57;;;;;;;;;;5044767;28;20490;-57
2022/12/15 03:53:48;;;;;;;9.33;5.60;;;;;;;;;;5047204;28;20470;-57
2022/12/15 03:56:14;;;;;;;11.17;6.27;;;;;;;;;;5044701;28;20459;-57
2022/12/15 03:58:40;;;;;;;11.80;6.73;;;;;;;;;;5044056;28;20439;-57
2022/12/15 04:01:13;;;;;;;9.37;6.17;;;;;;;;;;5038488;28;20835;-57
2022/12/15 04:03:39;;;;;;;9.13;7.43;;;;;;;;;;5034094;28;21013;-57
2022/12/15 04:06:05;;;;;;;9.27;5.57;;;;;;;;;;5044497;28;20519;-57
2022/12/15 04:08:31;;;;;;;10.20;6.70;;;;;;;;;;5045699;28;20574;-58
2022/12/15 04:10:57;;;;;;;8.60;6.13;;;;;;;;;;5026883;28;20423;-57
2022/12/15 04:13:23;;;;;;;11.30;6.27;;;;;;;;;;5037295;28;20435;-57
2022/12/15 04:15:49;;;;;;;11.00;6.53;;;;;;;;;;5045646;28;20471;-57
2022/12/15 04:18:15;;;;;;;7.77;6.13;;;;;;;;;;5029962;28;20464;-57
2022/12/15 04:20:41;;;;;;;8.03;5.60;;;;;;;;;;5045087;28;20431;-57
2022/12/15 04:23:07;;;;;;;9.87;6.07;;;;;;;;;;5037468;28;20436;-57
2022/12/15 05:31:53;;;;;;;12.23;6.40;;;;;;;;;;5046104;28;20509;-57
2022/12/15 05:34:25;;;;;;;12.20;6.70;;;;;;;;;;5043429;28;20442;-58
2022/12/15 05:36:57;;;;;;;10.53;7.27;;;;;;;;;;5044612;28;20518;-57
2022/12/15 05:39:24;;;;;;;11.77;6.73;;;;;;;;;;5043393;28;20458;-58
2022/12/15 05:41:50;;;;;;;11.60;6.70;;;;;;;;;;5038954;28;20430;-61
2022/12/15 05:44:17;;;;;;;10.67;6.83;;;;;;;;;;5045164;28;20503;-59
2022/12/15 05:46:43;;;;;;;11.63;8.70;;;;;;;;;;5041632;28;21004;-59
2022/12/15 05:49:11;;;;;;;16.43;9.03;;;;;;;;;;5043683;28;20871;-58
2022/12/15 05:51:45;;;;;;;18.40;9.97;;;;;;;;;;5040666;28;20457;-58
2022/12/15 05:54:14;;;;;;;17.40;9.50;;;;;;;;;;5041713;28;20490;-58
2022/12/15 05:56:40;;;;;;;15.83;9.10;;;;;;;;;;5044985;28;20459;-58
2022/12/15 05:59:06;;;;;;;15.73;9.20;;;;;;;;;;5037828;28;20466;-58
2022/12/15 06:01:34;;;;;;;17.63;9.33;;;;;;;;;;5037417;28;20432;-58
2022/12/15 06:04:12;;;;;;;14.47;9.67;;;;;;;;;;5019377;28;20463;-59
2022/12/15 06:06:38;;;;;;;19.03;10.27;;;;;;;;;;5041978;28;20466;-58
2022/12/15 06:09:05;;;;;;;19.30;9.10;;;;;;;;;;5039297;28;20446;-58
2022/12/15 06:11:31;;;;;;;16.37;9.50;;;;;;;;;;5052469;28;20468;-59
2022/12/15 06:13:57;;;;;;;20.07;10.73;;;;;;;;;;5052751;28;20504;-58
2022/12/15 06:16:24;;;;;;;16.23;9.90;;;;;;;;;;5042664;28;20447;-59
2022/12/15 06:18:53;;;;;;;18.70;9.13;;;;;;;;;;5040962;28;20485;-58
2022/12/15 06:21:20;;;;;;;18.77;10.73;;;;;;;;;;5042233;28;20427;-58
2022/12/15 06:23:46;;;;;;;16.17;8.93;;;;;;;;;;5043048;28;20435;-58
2022/12/15 06:26:30;;;;;;;21.83;10.77;;;;;;;;;;5040142;28;20938;-58
2022/12/15 06:28:57;;;;;;;20.30;10.27;;;;;;;;;;5022996;28;20439;-59
2022/12/15 06:31:24;;;;;;;19.80;9.40;;;;;;;;;;5040574;28;21078;-58
2022/12/15 06:33:50;;;;;;;16.40;9.33;;;;;;;;;;5042446;28;21036;-58
2022/12/15 06:36:17;;;;;;;16.17;10.73;;;;;;;;;;5042322;28;20652;-58
2022/12/15 06:38:43;;;;;;;16.87;9.57;;;;;;;;;;5041776;28;20427;-58
2022/12/15 06:41:11;;;;;;;18.73;11.33;;;;;;;;;;5043432;28;20770;-58
2022/12/15 06:43:37;;;;;;;18.33;10.63;;;;;;;;;;5037569;28;20464;-58
2022/12/15 06:46:03;;;;;;;23.03;10.63;;;;;;;;;;5036793;28;20432;-58
2022/12/15 06:48:29;;;;;;;25.90;11.60;;;;;;;;;;5039730;28;20435;-58
2022/12/15 06:50:56;;;;;;;25.40;11.13;;;;;;;;;;5025149;28;20430;-58
2022/12/15 06:53:23;;;;;;;22.23;11.70;;;;;;;;;;5047674;28;20440;-58
2022/12/15 06:55:49;;;;;;;20.87;11.13;;;;;;;;;;5047165;28;20509;-58
2022/12/15 06:58:16;;;;;;;20.57;11.00;;;;;;;;;;5048762;28;21003;-59
2022/12/15 07:00:43;;;;;;;20.83;11.47;;;;;;;;;;5048154;28;20480;-59
2022/12/15 07:03:12;;;;;;;30.87;12.83;;;;;;;;;;5062202;28;20893;-59
2022/12/15 07:05:38;;;;;;;19.43;10.33;;;;;;;;;;5033226;28;20455;-59
2022/12/15 07:08:04;;;;;;;22.07;11.67;;;;;;;;;;5033314;28;20433;-58
2022/12/15 07:10:30;;;;;;;31.77;13.13;;;;;;;;;;5017360;28;20428;-58
2022/12/15 07:12:57;;;;;;;22.53;13.27;;;;;;;;;;5049763;28;20402;-58
2022/12/15 07:15:23;;;;;;;25.77;12.47;;;;;;;;;;5047877;28;20478;-58
2022/12/15 07:17:49;;;;;;;31.50;14.50;;;;;;;;;;5042396;28;20941;-58
2022/12/15 07:20:16;;;;;;;24.00;12.67;;;;;;;;;;5046394;28;20427;-58
2022/12/15 07:22:42;;;;;;;22.50;13.53;;;;;;;;;;5045261;28;20836;-58
2022/12/15 07:25:08;;;;;;;24.83;12.70;;;;;;;;;;5042817;28;20484;-58
2022/12/15 07:27:34;;;;;;;25.47;11.23;;;;;;;;;;5028975;28;20431;-58
2022/12/15 07:30:00;;;;;;;22.77;13.80;;;;;;;;;;5047818;28;20418;-58
2022/12/15 07:32:26;;;;;;;28.77;13.93;;;;;;;;;;5022249;28;20437;-58
2022/12/15 07:34:52;;;;;;;27.40;13.97;;;;;;;;;;5049099;28;20501;-58
2022/12/15 07:37:18;;;;;;;28.47;13.80;;;;;;;;;;5049793;28;20407;-58
2022/12/15 07:39:44;;;;;;;22.90;11.77;;;;;;;;;;5048933;28;20817;-58
2022/12/15 07:42:10;;;;;;;20.87;11.43;;;;;;;;;;5048747;28;20446;-58
2022/12/15 07:44:37;;;;;;;21.53;12.43;;;;;;;;;;5049087;28;20388;-58
2022/12/15 07:47:03;;;;;;;27.73;11.93;;;;;;;;;;5029820;28;20846;-58
2022/12/15 07:49:29;;;;;;;24.90;12.10;;;;;;;;;;5048604;28;20664;-58
2022/12/15 07:51:57;;;;;;;20.30;11.70;;;;;;;;;;5047607;28;20779;-58
2022/12/15 07:54:23;;;;;;;19.30;11.37;;;;;;;;;;5057326;28;20452;-58
2022/12/15 07:56:49;;;;;;;19.00;11.63;;;;;;;;;;5048392;28;20420;-58
2022/12/15 07:59:16;;;;;;;20.77;12.37;;;;;;;;;;5030759;28;20412;-58
2022/12/15 08:01:42;;;;;;;20.67;12.57;;;;;;;;;;5031258;28;20423;-58
2022/12/15 08:04:09;;;;;;;18.40;12.07;;;;;;;;;;5035034;28;20463;-57
2022/12/15 08:06:35;;;;;;;24.90;13.10;;;;;;;;;;5028937;28;20427;-58
2022/12/15 08:09:01;;;;;;;19.13;11.40;;;;;;;;;;5048850;28;20411;-58
2022/12/15 08:11:27;;;;;;;17.73;11.60;;;;;;;;;;5062808;28;20423;-58
2022/12/15 08:13:54;;;;;;;22.83;12.90;;;;;;;;;;5061386;28;20460;-58
2022/12/15 08:16:20;;;;;;;21.40;11.67;;;;;;;;;;5045968;28;20490;-59
2022/12/15 08:18:46;;;;;;;19.30;11.80;;;;;;;;;;5047136;28;20906;-58
2022/12/15 08:21:13;;;;;;;22.53;13.17;;;;;;;;;;5026445;28;20430;-59
2022/12/15 08:23:39;;;;;;;21.27;12.17;;;;;;;;;;5026664;28;20437;-58
2022/12/15 08:26:07;;;;;;;22.10;11.30;;;;;;;;;;5042190;28;20503;-58
2022/12/15 08:28:34;;;;;;;17.37;11.23;;;;;;;;;;5047868;28;20412;-58
2022/12/15 08:31:07;;;;;;;22.00;11.47;;;;;;;;;;5048000;28;20533;-59
2022/12/15 08:33:33;;;;;;;22.40;11.23;;;;;;;;;;5028187;28;20419;-58
2022/12/15 08:36:01;;;;;;;16.33;11.80;;;;;;;;;;5043062;28;20866;-58
2022/12/15 08:38:27;;;;;;;15.97;10.20;;;;;;;;;;5047228;28;20504;-59
2022/12/15 08:40:53;;;;;;;20.17;12.00;;;;;;;;;;5047669;28;20477;-58
2022/12/15 08:43:20;;;;;;;18.90;10.83;;;;;;;;;;5047864;28;20942;-58
2022/12/15 08:45:46;;;;;;;15.27;10.17;;;;;;;;;;5056459;28;20826;-58
2022/12/15 08:48:12;;;;;;;17.90;9.93;;;;;;;;;;5047063;28;20772;-58
2022/12/15 08:50:38;;;;;;;17.77;11.77;;;;;;;;;;5047132;28;20526;-58
2022/12/15 08:53:04;;;;;;;16.20;10.80;;;;;;;;;;5045784;28;20412;-58
2022/12/15 08:55:30;;;;;;;17.40;9.83;;;;;;;;;;5028214;28;20462;-58
2022/12/15 08:57:56;;;;;;;21.40;11.33;;;;;;;;;;5044447;28;20418;-57
2022/12/15 09:00:22;;;;;;;18.27;11.03;;;;;;;;;;5046361;28;20798;-58
2022/12/15 09:02:48;;;;;;;20.80;11.50;;;;;;;;;;5053945;27;20432;-59
2022/12/15 09:05:15;;;;;;;19.87;12.00;;;;;;;;;;5045765;28;20471;-58
2022/12/15 09:07:41;;;;;;;17.37;10.13;;;;;;;;;;5043637;28;20522;-58
2022/12/15 09:10:07;;;;;;;18.57;10.23;;;;;;;;;;5045231;28;20447;-58
2022/12/15 09:12:33;;;;;;;22.60;10.83;;;;;;;;;;5021299;28;20812;-58
2022/12/15 09:14:59;;;;;;;19.23;11.97;;;;;;;;;;5026320;28;21019;-58
2022/12/15 09:17:25;;;;;;;18.53;9.53;;;;;;;;;;5028624;28;20922;-56
2022/12/15 09:19:51;;;;;;;18.90;10.37;;;;;;;;;;5042849;28;20420;-56
2022/12/15 09:22:17;;;;;;;15.53;10.13;;;;;;;;;;5042859;28;20473;-57
2022/12/15 09:24:43;;;;;;;18.43;10.33;;;;;;;;;;5044670;28;20424;-56
2022/12/15 09:27:09;;;;;;;17.20;10.80;;;;;;;;;;5043726;28;20857;-56
2022/12/15 09:29:36;;;;;;;16.57;10.70;;;;;;;;;;5046305;28;20426;-57
2022/12/15 09:32:02;;;;;;;15.30;10.50;;;;;;;;;;5046770;28;20788;-56
2022/12/15 09:34:28;;;;;;;20.97;11.53;;;;;;;;;;5027690;28;20420;-56
2022/12/15 09:36:55;;;;;;;22.10;12.67;;;;;;;;;;5043145;28;20453;-56
2022/12/15 09:39:22;;;;;;;17.40;10.60;;;;;;;;;;5046449;28;20423;-56
2022/12/15 09:41:51;;;;;;;15.37;11.37;;;;;;;;;;5046461;28;20408;-56
2022/12/15 09:44:18;;;;;;;18.87;12.03;;;;;;;;;;5022314;28;20547;-56
2022/12/15 09:46:44;;;;;;;23.33;12.47;;;;;;;;;;5045870;28;20497;-56
2022/12/15 09:49:14;;;;;;;22.03;13.30;;;;;;;;;;5040363;28;20416;-56
2022/12/15 09:51:44;;;;;;;19.33;12.87;;;;;;;;;;5036501;28;20518;-56
2022/12/15 09:54:10;;;;;;;22.37;13.10;;;;;;;;;;5045796;28;20482;-56
2022/12/15 09:56:56;;;;;;;28.57;14.13;;;;;;;;;;5046450;28;20439;-56
2022/12/15 09:59:25;;;;;;;21.60;13.60;;;;;;;;;;5034921;28;20450;-59
2022/12/15 10:02:11;;;;;;;24.00;15.63;;;;;;;;;;5027004;28;20424;-56
2022/12/15 10:04:44;;;;;;;23.40;15.23;;;;;;;;;;5034430;28;20473;-56
2022/12/15 10:07:28;;;;;;;25.60;14.23;;;;;;;;;;5040232;28;20424;-56
2022/12/15 10:09:54;;;;;;;25.17;14.63;;;;;;;;;;5029489;28;20455;-56
2022/12/15 10:12:24;;;;;;;22.37;14.10;;;;;;;;;;5036950;28;20420;-56
2022/12/15 10:14:54;;;;;;;27.93;14.47;;;;;;;;;;5035871;28;20961;-56
2022/12/15 10:17:52;;;;;;;17.70;12.03;;;;;;;;;;5044446;28;20791;-56
2022/12/15 10:20:27;;;;;;;18.23;11.63;;;;;;;;;;5010867;28;20428;-55
2022/12/15 10:22:56;;;;;;;25.13;15.47;;;;;;;;;;5048047;28;20450;-56
2022/12/15 10:25:28;;;;;;;25.43;14.33;;;;;;;;;;5032715;28;20428;-56
2022/12/15 10:28:13;;;;;;;22.67;14.63;;;;;;;;;;5035910;28;20443;-56
2022/12/15 10:30:43;;;;;;;23.40;14.73;;;;;;;;;;5038005;28;20584;-56
2022/12/15 10:33:19;;;;;;;21.20;14.93;;;;;;;;;;5051817;28;20515;-56
2022/12/15 10:35:46;;;;;;;26.60;14.43;;;;;;;;;;5040222;28;20954;-56
2022/12/15 10:38:21;;;;;;;27.33;16.37;;;;;;;;;;5042104;28;20415;-56
2022/12/15 10:40:51;;;;;;;23.50;15.00;;;;;;;;;;5038526;28;20526;-56
2022/12/15 10:43:29;;;;;;;21.47;13.33;;;;;;;;;;5043842;28;20439;-56
2022/12/15 10:46:21;;;;;;;24.87;15.73;;;;;;;;;;5037629;28;20815;-56
2022/12/15 10:48:49;;;;;;;19.33;12.47;;;;;;;;;;5043970;28;20445;-56
2022/12/15 10:51:17;;;;;;;21.73;14.13;;;;;;;;;;5041763;28;20432;-56
2022/12/15 10:53:45;;;;;;;21.60;13.57;;;;;;;;;;5038608;28;20903;-56
2022/12/15 10:56:17;;;;;;;25.33;14.67;;;;;;;;;;5038623;28;20666;-58
2022/12/15 10:58:50;;;;;;;29.47;17.00;;;;;;;;;;5043983;28;20940;-56
2022/12/15 11:01:23;;;;;;;28.93;15.43;;;;;;;;;;5039838;28;20426;-56
2022/12/15 11:03:51;;;;;;;34.33;16.53;;;;;;;;;;5037223;28;20472;-56
2022/12/15 11:06:28;;;;;;;30.07;17.10;;;;;;;;;;5046257;28;20458;-56
2022/12/15 11:08:56;;;;;;;25.00;14.80;;;;;;;;;;5036310;28;20415;-56
2022/12/15 11:14:13;;;;;;;25.13;15.43;;;;;;;;;;5043891;28;20435;-56
2022/12/15 11:16:47;;;;;;;23.27;13.93;;;;;;;;;;5036153;28;21042;-56
2022/12/15 11:19:16;;;;;;;30.13;17.30;;;;;;;;;;5039981;28;20442;-56
2022/12/15 11:21:44;;;;;;;29.37;16.70;;;;;;;;;;5018095;28;20796;-55
2022/12/15 11:24:16;;;;;;;30.03;16.37;;;;;;;;;;5050887;28;20945;-56
2022/12/15 11:26:51;;;;;;;22.07;14.17;;;;;;;;;;5045914;28;20408;-56
2022/12/15 11:29:17;;;;;;;21.73;14.37;;;;;;;;;;5033845;28;20818;-57
2022/12/15 11:31:44;;;;;;;25.43;14.73;;;;;;;;;;5038447;28;20463;-56
2022/12/15 11:34:13;;;;;;;27.17;15.70;;;;;;;;;;5035844;28;20470;-56
2022/12/15 11:36:49;;;;;;;25.17;14.77;;;;;;;;;;5047586;28;20466;-56
2022/12/15 11:39:34;;;;;;;26.60;16.73;;;;;;;;;;5049869;28;20462;-56
2022/12/15 11:42:11;;;;;;;26.47;16.77;;;;;;;;;;5048225;28;20695;-56
2022/12/15 11:45:13;;;;;;;35.00;16.70;;;;;;;;;;5043527;28;20404;-56
2022/12/15 11:47:45;;;;;;;24.17;17.53;;;;;;;;;;4967976;28;20419;-56
2022/12/15 11:50:18;;;;;;;26.80;15.73;;;;;;;;;;5028625;28;20444;-56
2022/12/15 11:52:50;;;;;;;29.87;16.73;;;;;;;;;;5049558;28;20837;-56
2022/12/15 11:55:28;;;;;;;24.20;15.67;;;;;;;;;;5052366;28;20821;-56
2022/12/15 11:57:57;;;;;;;31.33;17.07;;;;;;;;;;5036316;28;20955;-56
2022/12/15 12:00:26;;;;;;;26.30;16.37;;;;;;;;;;5039450;28;20455;-56
2022/12/15 12:03:08;;;;;;;30.17;18.37;;;;;;;;;;5039928;28;20408;-56
2022/12/15 12:05:57;;;;;;;34.57;18.20;;;;;;;;;;5048378;28;21058;-56
2022/12/15 12:08:32;;;;;;;27.50;17.10;;;;;;;;;;5044531;28;20798;-56
2022/12/15 12:11:05;;;;;;;27.87;16.00;;;;;;;;;;5039632;28;20990;-56
2022/12/15 12:13:34;;;;;;;28.77;16.50;;;;;;;;;;5046733;28;20431;-56
2022/12/15 12:16:18;;;;;;;24.63;15.10;;;;;;;;;;5048224;28;20852;-56
2022/12/15 12:18:48;;;;;;;28.67;17.47;;;;;;;;;;5040716;28;20469;-56
2022/12/15 12:21:15;;;;;;;23.23;14.30;;;;;;;;;;5021649;28;20411;-56
2022/12/15 12:23:44;;;;;;;28.43;17.57;;;;;;;;;;5049822;28;20972;-56
2022/12/15 12:26:15;;;;;;;31.73;18.23;;;;;;;;;;5045553;28;20778;-56
2022/12/15 12:28:55;;;;;;;27.40;16.20;;;;;;;;;;5040199;28;20481;-56
2022/12/15 12:31:21;;;;;;;25.00;17.30;;;;;;;;;;5043743;28;20807;-56
2022/12/15 12:33:49;;;;;;;27.40;17.47;;;;;;;;;;5050572;28;20585;-56
2022/12/15 12:36:15;;;;;;;24.87;16.00;;;;;;;;;;5037882;28;21007;-56
2022/12/15 12:38:45;;;;;;;25.27;16.50;;;;;;;;;;5051428;28;20468;-56
2022/12/15 12:41:14;;;;;;;27.53;17.30;;;;;;;;;;5047017;28;20430;-56
2022/12/15 12:43:41;;;;;;;26.50;16.10;;;;;;;;;;5019752;28;20429;-56
2022/12/15 12:46:39;;;;;;;33.93;19.10;;;;;;;;;;5037090;28;21153;-56
2022/12/15 12:49:11;;;;;;;29.80;16.63;;;;;;;;;;4997128;28;20439;-56
2022/12/15 12:51:39;;;;;;;28.93;15.83;;;;;;;;;;5029337;28;21047;-56
2022/12/15 12:54:23;;;;;;;34.93;18.27;;;;;;;;;;5051155;28;20564;-56
2022/12/15 12:56:49;;;;;;;33.33;18.47;;;;;;;;;;5040163;28;20500;-56
2022/12/15 12:59:28;;;;;;;31.07;16.63;;;;;;;;;;5051011;28;20533;-56
2022/12/15 13:01:58;;;;;;;27.17;17.23;;;;;;;;;;5038916;28;20922;-56
2022/12/15 13:04:32;;;;;;;26.57;17.77;;;;;;;;;;5032223;28;20831;-56
2022/12/15 13:06:58;;;;;;;29.60;18.57;;;;;;;;;;5013652;28;20424;-56
2022/12/15 13:09:36;;;;;;;33.80;18.80;;;;;;;;;;5024061;28;20432;-56
2022/12/15 13:12:02;;;;;;;35.73;20.10;;;;;;;;;;5026058;28;20532;-56
2022/12/15 13:14:40;;;;;;;32.23;18.20;;;;;;;;;;5027460;28;20392;-56
2022/12/15 13:17:12;;;;;;;32.27;19.13;;;;;;;;;;5025376;28;20400;-56
2022/12/15 13:19:58;;;;;;;32.10;19.17;;;;;;;;;;5001648;28;20954;-56
2022/12/15 13:22:38;;;;;;;33.63;19.47;;;;;;;;;;5024412;28;20769;-56
2022/12/15 13:25:23;;;;;;;27.97;16.30;;;;;;;;;;5021677;28;20990;-56
2022/12/15 13:27:53;;;;;;;31.13;18.97;;;;;;;;;;5013987;28;20452;-55
2022/12/15 13:30:19;;;;;;;29.43;16.73;;;;;;;;;;5007680;28;20805;-56
2022/12/15 13:32:51;;;;;;;26.80;17.67;;;;;;;;;;5020492;28;20424;-56
2022/12/15 13:35:23;;;;;;;29.93;18.63;;;;;;;;;;5026854;28;20440;-56
2022/12/15 13:37:49;;;;;;;28.17;17.40;;;;;;;;;;5026032;28;20483;-56
2022/12/15 13:40:24;;;;;;;23.77;14.97;;;;;;;;;;5026863;28;20397;-56
2022/12/15 13:42:58;;;;;;;25.70;15.77;;;;;;;;;;5026278;28;20450;-56
2022/12/15 13:45:35;;;;;;;26.53;17.60;;;;;;;;;;5024782;28;20412;-56
2022/12/15 13:48:05;;;;;;;23.20;15.10;;;;;;;;;;5026290;28;20443;-57
2022/12/15 13:50:48;;;;;;;27.03;16.73;;;;;;;;;;5026796;28;20739;-56
2022/12/15 13:53:18;;;;;;;23.70;13.93;;;;;;;;;;5026383;28;20424;-56
2022/12/15 13:55:53;;;;;;;26.67;15.30;;;;;;;;;;5008905;28;20503;-57
2022/12/15 13:58:20;;;;;;;27.53;15.50;;;;;;;;;;5027028;28;20392;-57
2022/12/15 14:00:54;;;;;;;26.80;16.57;;;;;;;;;;5007270;28;20484;-64
2022/12/15 14:03:23;;;;;;;24.23;15.03;;;;;;;;;;5026376;28;20915;-56
2022/12/15 14:05:59;;;;;;;28.43;17.17;;;;;;;;;;5044118;28;20454;-56
2022/12/15 14:08:27;;;;;;;26.57;16.70;;;;;;;;;;5045590;28;20525;-56
2022/12/15 14:10:54;;;;;;;27.33;17.57;;;;;;;;;;5045237;28;20399;-56
2022/12/15 14:13:21;;;;;;;28.23;17.20;;;;;;;;;;5027023;28;20415;-56
2022/12/15 14:15:51;;;;;;;27.53;17.40;;;;;;;;;;5044258;28;20440;-56
2022/12/15 14:18:28;;;;;;;24.97;14.80;;;;;;;;;;5035404;28;20915;-56
2022/12/15 14:20:54;;;;;;;28.40;16.83;;;;;;;;;;5039753;28;20895;-56
2022/12/15 14:23:21;;;;;;;28.77;17.80;;;;;;;;;;5048221;28;20424;-59
2022/12/15 14:25:55;;;;;;;28.90;17.83;;;;;;;;;;5044871;28;20439;-59
2022/12/15 14:28:24;;;;;;;30.77;17.63;;;;;;;;;;5044017;28;20447;-59
2022/12/15 14:30:51;;;;;;;27.20;15.60;;;;;;;;;;5023583;28;21013;-59
2022/12/15 14:33:18;;;;;;;29.83;16.27;;;;;;;;;;5047094;28;20649;-59
2022/12/15 14:35:51;;;;;;;32.80;16.37;;;;;;;;;;5033969;28;20452;-58
2022/12/15 14:38:22;;;;;;;28.40;16.90;;;;;;;;;;5011031;28;20411;-59
2022/12/15 14:40:48;;;;;;;31.73;16.27;;;;;;;;;;5047309;28;20412;-59
2022/12/15 14:43:26;;;;;;;29.83;15.47;;;;;;;;;;5055016;28;21020;-59
2022/12/15 14:45:56;;;;;;;27.33;15.40;;;;;;;;;;5034614;28;20408;-59
2022/12/15 14:48:28;;;;;;;27.23;15.10;;;;;;;;;;5028013;28;20399;-59
2022/12/15 14:50:58;;;;;;;28.20;16.40;;;;;;;;;;5044942;28;20503;-58
2022/12/15 14:53:25;;;;;;;25.47;15.57;;;;;;;;;;5044944;28;20812;-59
2022/12/15 14:55:51;;;;;;;25.80;16.57;;;;;;;;;;5045519;28;20475;-59
2022/12/15 14:58:43;;;;;;;23.03;15.80;;;;;;;;;;5044903;28;20403;-58
2022/12/15 15:01:29;;;;;;;20.17;13.30;;;;;;;;;;5039309;28;20921;-58
2022/12/15 15:03:59;;;;;;;28.67;15.67;;;;;;;;;;5045907;28;20459;-59
2022/12/15 15:06:43;;;;;;;27.37;15.60;;;;;;;;;;5025689;28;20772;-59
2022/12/15 15:09:28;;;;;;;20.87;14.73;;;;;;;;;;5039174;28;20439;-59
2022/12/15 15:12:05;;;;;;;22.80;14.47;;;;;;;;;;5006639;28;20420;-58
2022/12/15 15:14:33;;;;;;;21.33;14.40;;;;;;;;;;5043626;28;21005;-59
2022/12/15 15:17:08;;;;;;;27.00;15.33;;;;;;;;;;5050222;28;20957;-58
2022/12/15 15:19:35;;;;;;;21.90;14.20;;;;;;;;;;5031415;28;20411;-59
2022/12/15 15:22:02;;;;;;;25.43;16.13;;;;;;;;;;5044360;28;20466;-59
2022/12/15 15:24:38;;;;;;;22.10;15.33;;;;;;;;;;5043186;28;20434;-59
2022/12/15 15:27:23;;;;;;;19.87;14.00;;;;;;;;;;5041629;28;20490;-59
2022/12/15 15:29:49;;;;;;;21.53;14.03;;;;;;;;;;5020765;28;20420;-59
2022/12/15 15:32:16;;;;;;;22.50;14.53;;;;;;;;;;5041640;28;20439;-59
2022/12/15 15:34:43;;;;;;;21.93;13.03;;;;;;;;;;5029530;28;20426;-59
2022/12/15 15:37:16;;;;;;;22.30;14.13;;;;;;;;;;5040953;28;20467;-59
2022/12/15 15:39:43;;;;;;;23.23;14.80;;;;;;;;;;5028738;28;20842;-58
2022/12/15 15:42:12;;;;;;;20.93;14.83;;;;;;;;;;5040597;28;20424;-59
2022/12/15 15:44:39;;;;;;;22.20;14.80;;;;;;;;;;5041431;28;20428;-58
2022/12/15 15:47:06;;;;;;;24.60;15.70;;;;;;;;;;5041255;28;20442;-59
2022/12/15 15:49:32;;;;;;;18.97;13.00;;;;;;;;;;5029899;28;20531;-59
2022/12/15 15:51:58;;;;;;;21.03;14.43;;;;;;;;;;5040673;28;20440;-58
2022/12/15 15:54:26;;;;;;;23.77;13.23;;;;;;;;;;5035212;28;20458;-59
2022/12/15 15:56:52;;;;;;;22.80;13.63;;;;;;;;;;5028383;28;20487;-59
2022/12/15 15:59:23;;;;;;;21.30;12.97;;;;;;;;;;5047845;28;20936;-59
2022/12/15 16:01:53;;;;;;;25.23;14.70;;;;;;;;;;5029671;28;20423;-59
2022/12/15 16:04:19;;;;;;;18.53;14.13;;;;;;;;;;5045846;28;20804;-59
2022/12/15 16:06:46;;;;;;;20.70;14.80;;;;;;;;;;5046361;28;21431;-59
2022/12/15 16:09:13;;;;;;;23.97;14.03;;;;;;;;;;5048612;28;20927;-60
2022/12/15 16:11:40;;;;;;;21.63;11.93;;;;;;;;;;5044710;28;20520;-58
2022/12/15 16:14:10;;;;;;;21.20;14.83;;;;;;;;;;5048902;28;20411;-59
2022/12/15 16:16:36;;;;;;;21.73;13.27;;;;;;;;;;5045856;28;20451;-59
2022/12/15 16:19:03;;;;;;;21.43;14.50;;;;;;;;;;5030245;28;20835;-59
2022/12/15 16:21:29;;;;;;;22.80;14.27;;;;;;;;;;5039377;28;20539;-59
2022/12/15 16:23:56;;;;;;;26.03;14.33;;;;;;;;;;5039966;28;20427;-59
2022/12/15 16:26:27;;;;;;;22.17;13.67;;;;;;;;;;5034963;28;20518;-59
2022/12/15 16:28:53;;;;;;;18.40;12.13;;;;;;;;;;5052868;28;20432;-59
2022/12/15 16:31:35;;;;;;;23.10;14.43;;;;;;;;;;5040134;28;20508;-59
2022/12/15 16:34:01;;;;;;;20.20;12.97;;;;;;;;;;5037191;28;20428;-59
2022/12/15 16:36:28;;;;;;;20.27;12.70;;;;;;;;;;5037034;28;20460;-59
2022/12/15 16:38:54;;;;;;;24.67;14.23;;;;;;;;;;5046171;28;20430;-59
2022/12/15 16:41:22;;;;;;;20.07;12.60;;;;;;;;;;5047843;28;20397;-59
2022/12/15 16:43:48;;;;;;;23.43;14.57;;;;;;;;;;5047690;28;20408;-59
2022/12/15 16:46:14;;;;;;;23.57;14.83;;;;;;;;;;5027643;28;20979;-59
2022/12/15 16:48:41;;;;;;;20.10;13.63;;;;;;;;;;5042200;28;20422;-58
2022/12/15 16:51:08;;;;;;;22.10;13.40;;;;;;;;;;5039941;28;20422;-59
2022/12/15 16:53:37;;;;;;;19.57;12.90;;;;;;;;;;5044709;28;20442;-59
2022/12/15 16:56:04;;;;;;;20.73;12.60;;;;;;;;;;5045878;28;20466;-59